NCAR-RAP Real-Time Weather Data

Output produced by METARs form (10 December 2016  20:21 UTC)
found at http://weather.rap.ucar.edu/surface/
 
Conditions at: KSDF observed 10 December 2016  19:56 UTC
Temperature: 1.1°C (34°F)
Dewpoint: -10.0°C (14°F) [RH = 43%]
Pressure (altimeter): 30.49 inches Hg (1032.6 mb)
[Sea-level pressure: 1033.0 mb]
Winds: from the SSE (150 degrees) at 3 MPH (3 knots; 1.6 m/s)
Visibility: 10 or more miles (16+ km)
Ceiling: 19000 feet AGL
Clouds: few clouds at 6500 feet AGL
overcast cloud deck at 19000 feet AGL
Present Weather:
SOME DATA ABOVE MAY BE INACCURATE!!!
"$" is an indication the sensor requires maintenance
KSDF 101956Z 15003KT 10SM FEW065 OVC190 01/M10 A3049 RMK AO2 SLP330 T00111100 $